createdAt,value
2023-04-26T00:03:00.852Z,98569.97
2023-04-26T00:08:05.634Z,98580.13
2023-04-26T00:13:08.459Z,98586.09
2023-04-26T00:18:12.549Z,98585.63
2023-04-26T00:23:17.445Z,98582.16
2023-04-26T00:28:20.650Z,98593.53
2023-04-26T00:33:23.479Z,98587.88
2023-04-26T00:38:27.635Z,98587.78
2023-04-26T00:43:30.411Z,98590.91
2023-04-26T00:48:34.175Z,98581.41
2023-04-26T00:53:38.482Z,98584.25
2023-04-26T00:58:41.322Z,98582.84
2023-04-26T01:03:46.914Z,98579.72
2023-04-26T01:08:53.430Z,98578.38
2023-04-26T01:13:58.473Z,98573.91
2023-04-26T01:19:09.477Z,98570.81
2023-04-26T01:24:14.716Z,98583.34
2023-04-26T01:29:19.097Z,98584.84
2023-04-26T01:34:21.810Z,98581.97
2023-04-26T01:39:25.835Z,98587.63
2023-04-26T01:44:28.561Z,98587.00
2023-04-26T01:49:31.411Z,98583.38
2023-04-26T01:54:35.676Z,98583.00
2023-04-26T01:59:38.431Z,98581.53
2023-04-26T02:04:41.309Z,98580.97
2023-04-26T02:09:46.473Z,98578.59
2023-04-26T02:14:49.258Z,98564.66
2023-04-26T02:19:52.031Z,98569.22
2023-04-26T02:24:56.376Z,98553.75
2023-04-26T02:30:03.866Z,98565.34
2023-04-26T02:35:07.766Z,98567.22
2023-04-26T02:40:13.305Z,98571.69
2023-04-26T02:45:17.102Z,98573.94
2023-04-26T02:50:20.009Z,98579.09
2023-04-26T02:55:24.991Z,98575.53
2023-04-26T03:00:28.510Z,98575.63
2023-04-26T03:05:31.418Z,98574.28
2023-04-26T03:10:35.643Z,98573.22
2023-04-26T03:15:38.565Z,98575.50
2023-04-26T03:20:41.923Z,98574.56
2023-04-26T03:25:47.183Z,98577.22
2023-04-26T03:30:50.374Z,98572.16
2023-04-26T03:35:53.626Z,98569.63
2023-04-26T03:40:58.259Z,98568.97
2023-04-26T03:46:02.252Z,98571.88
2023-04-26T03:51:05.187Z,98563.38
2023-04-26T03:56:09.795Z,98562.53
2023-04-26T04:01:13.652Z,98564.44
2023-04-26T04:06:17.234Z,98564.91
2023-04-26T04:11:21.393Z,98568.69
2023-04-26T04:16:24.162Z,98564.28
2023-04-26T04:21:27.849Z,98575.13
2023-04-26T04:26:32.927Z,98584.91
2023-04-26T04:31:36.361Z,98590.03
2023-04-26T04:36:40.690Z,98594.25
2023-04-26T04:41:48.152Z,98601.66
2023-04-26T04:46:52.592Z,98600.19
2023-04-26T04:51:57.483Z,98609.69
2023-04-26T04:57:03.185Z,98616.28
2023-04-26T05:02:07.290Z,98612.59
2023-04-26T05:07:10.441Z,98620.81
2023-04-26T05:12:16.632Z,98623.19
2023-04-26T05:17:19.573Z,98621.81
2023-04-26T05:22:23.062Z,98635.25
2023-04-26T05:27:29.391Z,98633.38
2023-04-26T05:32:51.223Z,98633.31
2023-04-26T05:38:09.159Z,98634.50
2023-04-26T05:43:14.151Z,98639.53
2023-04-26T05:48:19.347Z,98641.97
2023-04-26T05:53:24.173Z,98653.66
2023-04-26T05:58:28.319Z,98654.13
2023-04-26T06:03:32.212Z,98656.47
2023-04-26T06:08:39.171Z,98660.97
2023-04-26T06:13:44.147Z,98671.94
2023-04-26T06:18:47.970Z,98660.69
2023-04-26T06:23:51.435Z,98661.81
2023-04-26T06:28:57.467Z,98663.09
2023-04-26T06:34:00.275Z,98668.38
2023-04-26T06:39:04.088Z,98654.88
2023-04-26T06:44:09.590Z,98659.81
2023-04-26T06:49:20.056Z,98670.47
2023-04-26T06:54:24.174Z,98679.81
2023-04-26T06:59:28.284Z,98673.63
2023-04-26T07:04:32.436Z,98680.91
2023-04-26T07:09:35.735Z,98677.13
2023-04-26T07:14:43.372Z,98673.91
2023-04-26T07:19:46.242Z,98675.78
2023-04-26T07:24:48.987Z,98672.91
2023-04-26T07:29:56.598Z,98674.38
2023-04-26T07:35:00.288Z,98668.75
2023-04-26T07:40:07.739Z,98663.41
2023-04-26T07:45:14.802Z,98659.44
2023-04-26T07:50:17.810Z,98665.31
2023-04-26T07:55:20.506Z,98656.78
2023-04-26T08:00:27.105Z,98660.59
2023-04-26T08:05:30.045Z,98666.19
2023-04-26T08:10:33.057Z,98667.78
2023-04-26T08:15:37.246Z,98662.31
2023-04-26T08:20:40.068Z,98658.69
2023-04-26T08:25:42.743Z,98670.41
2023-04-26T08:30:46.944Z,98668.25
2023-04-26T08:35:49.862Z,98655.03
2023-04-26T08:40:54.453Z,98657.56
2023-04-26T08:46:00.272Z,98661.88
2023-04-26T08:51:06.508Z,98665.22
2023-04-26T08:56:13.298Z,98665.88
2023-04-26T09:01:21.586Z,98665.41
2023-04-26T09:06:25.418Z,98652.13
2023-04-26T09:11:28.379Z,98649.56
2023-04-26T09:16:40.009Z,98650.53
2023-04-26T09:28:01.879Z,98638.78
2023-04-26T09:33:07.934Z,98635.38
2023-04-26T09:38:14.267Z,98632.47
2023-04-26T09:43:18.631Z,98637.97
2023-04-26T09:48:26.420Z,98639.25
2023-04-26T09:53:32.392Z,98637.72
2023-04-26T09:58:36.410Z,98639.41
2023-04-26T10:03:41.892Z,98629.34
2023-04-26T10:08:45.760Z,98634.38
2023-04-26T10:13:52.067Z,98627.16
2023-04-26T10:19:00.025Z,98620.38
2023-04-26T10:24:02.914Z,98619.59
2023-04-26T10:29:05.863Z,98599.50
2023-04-26T10:34:23.902Z,98608.41
2023-04-26T10:39:28.217Z,98602.97
2023-04-26T10:44:49.926Z,98608.00
2023-04-26T10:49:55.404Z,98594.38
2023-04-26T10:55:00.617Z,98586.88
2023-04-26T11:00:23.892Z,98586.41
2023-04-26T11:05:38.416Z,98589.38
2023-04-26T11:10:42.696Z,98578.47
2023-04-26T11:15:52.005Z,98579.81
2023-04-26T11:20:56.775Z,98578.00
2023-04-26T11:26:00.355Z,98570.34
2023-04-26T11:31:04.432Z,98577.31
2023-04-26T11:36:10.421Z,98581.47
2023-04-26T11:41:13.507Z,98565.63
2023-04-26T11:46:16.654Z,98566.06
2023-04-26T11:51:23.128Z,98567.41
2023-04-26T11:56:26.830Z,98558.13
2023-04-26T12:01:31.796Z,98555.09
2023-04-26T12:06:45.262Z,98560.47
2023-04-26T12:11:50.681Z,98558.72
2023-04-26T12:16:54.228Z,98555.25
2023-04-26T12:21:58.358Z,98549.63
2023-04-26T12:27:04.474Z,98549.72
2023-04-26T12:32:07.693Z,98558.66
2023-04-26T12:37:12.466Z,98554.38
2023-04-26T12:42:15.508Z,98543.59
2023-04-26T12:47:18.224Z,98550.31
2023-04-26T12:52:24.567Z,98539.09
2023-04-26T12:57:27.367Z,98543.75
2023-04-26T13:02:30.731Z,98539.06
2023-04-26T13:07:36.564Z,98546.75
2023-04-26T13:12:39.835Z,98552.41
2023-04-26T13:17:44.406Z,98549.22
2023-04-26T13:22:51.619Z,98546.97
2023-04-26T13:27:56.200Z,98545.34
2023-04-26T13:33:00.603Z,98551.19
2023-04-26T13:38:04.851Z,98533.94
2023-04-26T13:43:07.674Z,98532.88
2023-04-26T13:48:11.592Z,98532.25
2023-04-26T13:53:16.560Z,98527.56
2023-04-26T13:58:19.302Z,98521.13
2023-04-26T14:03:22.926Z,98527.47
2023-04-26T14:08:28.647Z,98518.88
2023-04-26T14:13:31.623Z,98510.00
2023-04-26T14:18:35.250Z,98504.81
2023-04-26T14:23:39.871Z,98509.66
2023-04-26T14:28:42.986Z,98509.22
2023-04-26T14:33:46.596Z,98511.84
2023-04-26T14:38:51.777Z,98513.09
2023-04-26T14:43:54.610Z,98509.88
2023-04-26T14:48:57.673Z,98510.50
2023-04-26T14:54:03.414Z,98506.81
2023-04-26T14:59:06.668Z,98503.44
2023-04-26T15:04:09.715Z,98499.53
2023-04-26T15:09:14.048Z,98503.84
2023-04-26T15:14:16.709Z,98507.34
2023-04-26T15:19:19.487Z,98509.88
2023-04-26T15:24:24.339Z,98508.75
2023-04-26T15:29:27.777Z,98515.97
2023-04-26T15:34:40.056Z,98524.69
2023-04-26T15:39:44.485Z,98516.75
2023-04-26T15:44:50.327Z,98493.88
2023-04-26T15:49:54.695Z,98489.50
2023-04-26T15:54:59.672Z,98494.31
2023-04-26T16:00:05.840Z,98503.97
2023-04-26T16:05:11.102Z,98503.56
2023-04-26T16:10:15.381Z,98503.50
2023-04-26T16:15:18.648Z,98500.06
2023-04-26T16:20:22.773Z,98499.44
2023-04-26T16:25:26.892Z,98493.56
2023-04-26T16:30:30.370Z,98481.63
2023-04-26T16:35:33.781Z,98481.16
2023-04-26T16:40:38.102Z,98476.91
2023-04-26T16:45:41.142Z,98468.84
2023-04-26T16:50:43.816Z,98466.94
2023-04-26T16:55:47.991Z,98471.16
2023-04-26T17:00:50.744Z,98468.28
2023-04-26T17:05:53.540Z,98467.50
2023-04-26T17:10:59.722Z,98472.88
2023-04-26T17:16:02.858Z,98476.97
2023-04-26T17:21:07.074Z,98475.00
2023-04-26T17:26:11.804Z,98466.31
2023-04-26T17:31:14.597Z,98476.09
2023-04-26T17:36:17.804Z,98469.53
2023-04-26T17:41:22.953Z,98479.84
2023-04-26T17:46:27.148Z,98489.44
2023-04-26T17:51:30.633Z,98485.94
2023-04-26T17:56:34.811Z,98498.31
2023-04-26T18:01:37.661Z,98502.81
2023-04-26T18:06:40.744Z,98499.38
2023-04-26T18:11:47.917Z,98497.41
2023-04-26T18:16:52.552Z,98506.91
2023-04-26T18:21:55.489Z,98511.44
2023-04-26T18:26:59.836Z,98506.53
2023-04-26T18:32:03.204Z,98514.97
2023-04-26T18:37:06.483Z,98515.09
2023-04-26T18:42:10.687Z,98522.28
2023-04-26T18:47:13.515Z,98526.72
2023-04-26T18:52:16.209Z,98526.25
2023-04-26T18:57:22.631Z,98532.84
2023-04-26T19:02:25.545Z,98544.38
2023-04-26T19:07:28.666Z,98550.69
2023-04-26T19:12:34.796Z,98559.03
2023-04-26T19:17:37.558Z,98564.94
2023-04-26T19:22:41.680Z,98563.97
2023-04-26T19:27:45.947Z,98572.03
2023-04-26T19:32:49.324Z,98563.28
2023-04-26T19:37:52.568Z,98570.59
2023-04-26T19:42:58.182Z,98583.22
2023-04-26T19:48:00.939Z,98578.16
2023-04-26T19:53:05.858Z,98583.06
2023-04-26T19:58:11.629Z,98576.38
2023-04-26T20:03:14.836Z,98582.28
2023-04-26T20:08:17.880Z,98596.19
2023-04-26T20:13:23.291Z,98598.19
2023-04-26T20:18:26.169Z,98597.31
2023-04-26T20:23:29.030Z,98600.03
2023-04-26T20:28:33.520Z,98600.78
2023-04-26T20:33:37.322Z,98590.31
2023-04-26T20:38:40.019Z,98601.53
2023-04-26T20:43:44.311Z,98594.53
2023-04-26T20:48:48.002Z,98594.13
2023-04-26T20:53:51.023Z,98600.69
2023-04-26T20:58:55.080Z,98604.28
2023-04-26T21:03:58.051Z,98604.19
2023-04-26T21:09:01.098Z,98596.22
2023-04-26T21:14:06.736Z,98603.19
2023-04-26T21:19:09.791Z,98598.53
2023-04-26T21:24:14.779Z,98600.84
2023-04-26T21:29:18.897Z,98597.38
2023-04-26T21:34:21.723Z,98598.53
2023-04-26T21:39:24.481Z,98600.63
2023-04-26T21:44:29.001Z,98601.88
2023-04-26T21:49:31.675Z,98607.19
2023-04-26T21:54:35.713Z,98614.19
2023-04-26T21:59:42.189Z,98611.81
2023-04-26T22:04:44.956Z,98617.03
2023-04-26T22:09:49.060Z,98619.22
2023-04-26T22:14:53.309Z,98628.03
2023-04-26T22:19:56.483Z,98630.84
2023-04-26T22:24:59.659Z,98634.78
2023-04-26T22:30:12.740Z,98642.72
2023-04-26T22:35:23.948Z,98642.06
2023-04-26T22:40:26.692Z,98643.94
2023-04-26T22:45:30.952Z,98644.00
2023-04-26T22:50:33.692Z,98646.84
2023-04-26T22:55:36.767Z,98644.97
2023-04-26T23:00:41.082Z,98649.69
2023-04-26T23:05:43.834Z,98644.88
2023-04-26T23:10:46.753Z,98642.50
2023-04-26T23:15:50.911Z,98647.25
2023-04-26T23:20:53.694Z,98637.06
2023-04-26T23:25:56.849Z,98638.28
2023-04-26T23:31:01.135Z,98639.63
2023-04-26T23:36:04.076Z,98644.44
2023-04-26T23:41:06.791Z,98646.25
2023-04-26T23:46:10.962Z,98644.16
2023-04-26T23:51:13.754Z,98647.00
2023-04-26T23:56:16.509Z,98647.66
